Time;durP1;ratioP1;P1;durP2;ratioP2;P2;SDS_P1;SDS_P2;PMS_P1;PMS_P2;Temp;Humidity;BMP_temperature;BMP_pressure;BME280_temperature;BME280_humidity;BME280_pressure;Samples;Min_cycle;Max_cycle;Signal;HPM_P1;HPM_P2
2023/07/08 00:01:39;;;;;;;4.70;3.70;;;;;;;20.56;56.54;101439.84;5327436;27;20111;-73
2023/07/08 00:04:10;;;;;;;8.57;3.10;;;;;;;20.51;55.61;101436.50;5326246;28;20028;-74
2023/07/08 00:06:42;;;;;;;8.80;3.13;;;;;;;20.67;56.15;101434.06;5327225;28;20077;-74
2023/07/08 00:09:13;;;;;;;5.17;2.70;;;;;;;20.64;56.42;101435.09;5325666;28;20459;-75
2023/07/08 00:11:45;;;;;;;4.67;2.87;;;;;;;20.67;57.12;101434.94;5327283;28;20490;-73
2023/07/08 00:14:16;;;;;;;4.90;3.07;;;;;;;20.65;56.61;101430.63;5327248;28;20729;-74
2023/07/08 00:16:48;;;;;;;6.57;3.30;;;;;;;20.64;57.32;101426.25;5327152;28;20035;-74
2023/07/08 00:19:19;;;;;;;5.73;3.40;;;;;;;20.41;56.82;101425.47;5326980;28;20035;-74
2023/07/08 00:21:52;;;;;;;7.30;3.43;;;;;;;20.38;57.47;101425.59;5325779;28;20032;-74
2023/07/08 00:24:23;;;;;;;7.60;3.65;;;;;;;20.37;58.56;101424.75;5326801;28;20050;-74
2023/07/08 00:26:54;;;;;;;7.23;3.30;;;;;;;20.21;58.16;101427.19;5327126;28;20032;-74
2023/07/08 00:29:29;;;;;;;8.23;3.47;;;;;;;20.25;58.53;101419.97;5326968;28;20035;-73
2023/07/08 00:32:00;;;;;;;8.00;2.97;;;;;;;20.07;58.78;101423.41;5325604;28;20122;-73
2023/07/08 00:34:31;;;;;;;4.77;3.07;;;;;;;20.11;58.53;101417.06;5326786;28;20127;-73
2023/07/08 00:37:05;;;;;;;7.30;3.20;;;;;;;19.95;58.65;101420.38;5308247;28;20513;-74
2023/07/08 00:39:36;;;;;;;5.72;3.35;;;;;;;19.96;59.44;101422.06;5326686;28;20074;-73
2023/07/08 00:42:16;;;;;;;7.50;3.30;;;;;;;20.01;60.15;101417.47;5326663;28;20077;-74
2023/07/08 00:44:48;;;;;;;5.30;3.20;;;;;;;19.85;60.65;101406.66;5326626;28;20046;-73
2023/07/08 00:47:20;;;;;;;6.38;3.40;;;;;;;19.85;60.72;101411.06;5325369;28;20119;-74
2023/07/08 00:49:57;;;;;;;5.57;3.47;;;;;;;19.76;60.64;101408.84;5325219;28;20039;-73
2023/07/08 00:52:29;;;;;;;7.07;3.50;;;;;;;19.85;61.34;101408.44;5326358;28;20063;-73
2023/07/08 00:55:06;;;;;;;7.30;3.67;;;;;;;19.79;61.32;101406.06;5326101;28;20466;-73
2023/07/08 00:57:43;;;;;;;6.72;3.15;;;;;;;19.72;62.01;101401.91;5326601;28;20059;-73
2023/07/08 01:00:17;;;;;;;5.32;3.50;;;;;;;19.62;61.61;101402.28;5326445;28;20076;-73
2023/07/08 01:02:54;;;;;;;6.85;3.42;;;;;;;19.71;62.27;101403.69;5326786;28;20474;-74
2023/07/08 01:05:29;;;;;;;7.45;3.30;;;;;;;19.58;62.54;101413.06;5326754;28;20542;-74
2023/07/08 01:08:04;;;;;;;8.13;3.45;;;;;;;19.28;62.62;101408.06;5324952;28;20102;-74
2023/07/08 01:10:46;;;;;;;6.22;3.30;;;;;;;19.43;62.66;101410.13;5326284;28;20493;-74
2023/07/08 01:13:18;;;;;;;7.18;4.43;;;;;;;19.32;62.00;101401.75;5325469;28;20049;-73
2023/07/08 01:15:50;;;;;;;5.22;3.42;;;;;;;19.12;62.96;101407.81;5326461;28;20110;-74
2023/07/08 01:18:21;;;;;;;6.63;3.28;;;;;;;19.16;63.15;101408.53;5326090;28;20057;-73
2023/07/08 01:20:55;;;;;;;7.55;3.13;;;;;;;18.94;63.08;101415.50;5326326;28;20118;-73
2023/07/08 01:23:27;;;;;;;5.43;3.35;;;;;;;19.02;63.76;101409.09;5324971;28;20119;-73
2023/07/08 01:25:59;;;;;;;5.05;3.22;;;;;;;18.93;64.48;101411.16;5326636;28;20118;-73
2023/07/08 01:28:35;;;;;;;7.00;3.33;;;;;;;18.82;64.51;101405.38;5326151;28;20028;-73
2023/07/08 01:31:07;;;;;;;5.47;3.33;;;;;;;18.84;64.57;101406.22;5326508;28;20517;-74
2023/07/08 01:33:39;;;;;;;7.20;3.30;;;;;;;18.84;65.12;101406.22;5326581;28;20139;-74
2023/07/08 01:36:11;;;;;;;8.32;3.65;;;;;;;18.85;65.20;101405.31;5326173;28;20118;-74
2023/07/08 01:38:44;;;;;;;;;;;;;;;19.06;61.88;101402.75;5325978;28;20031;-73
2023/07/08 01:41:17;;;;;;;8.57;3.50;;;;;;;18.62;65.14;101403.47;5326047;28;19999;-74
2023/07/08 01:43:48;;;;;;;4.68;3.28;;;;;;;18.59;66.02;101400.94;5325763;28;20063;-73
2023/07/08 01:46:25;;;;;;;5.93;3.00;;;;;;;18.61;65.92;101406.16;5325098;28;20486;-73
2023/07/08 01:48:59;;;;;;;13.13;4.05;;;;;;;18.47;65.81;101404.03;5324502;28;20490;-74
2023/07/08 01:51:31;;;;;;;11.25;3.50;;;;;;;18.54;66.52;101401.09;5325626;28;20082;-74
2023/07/08 01:54:02;;;;;;;8.73;3.57;;;;;;;18.55;67.00;101402.84;5324297;28;20055;-74
2023/07/08 01:56:33;;;;;;;7.53;3.20;;;;;;;18.44;65.85;101390.94;5325734;28;20043;-74
2023/07/08 01:59:05;;;;;;;6.70;3.67;;;;;;;18.52;67.09;101391.53;5325587;28;20040;-74
2023/07/08 02:01:36;;;;;;;5.93;3.80;;;;;;;18.39;66.63;101388.47;5325526;28;20028;-74
2023/07/08 02:04:08;;;;;;;5.80;3.50;;;;;;;18.40;66.67;101377.88;5325566;28;20479;-74
2023/07/08 02:06:42;;;;;;;5.27;3.10;;;;;;;18.31;66.15;101385.25;5324313;28;20045;-72
2023/07/08 02:09:13;;;;;;;4.72;3.10;;;;;;;18.25;66.79;101373.13;5325516;28;20534;-73
2023/07/08 02:11:45;;;;;;;5.83;3.40;;;;;;;18.29;67.57;101372.09;5325494;28;20156;-73
2023/07/08 02:14:16;;;;;;;6.13;3.80;;;;;;;18.25;66.97;101378.41;5325482;28;20027;-73
2023/07/08 02:16:48;;;;;;;5.43;3.50;;;;;;;18.19;67.17;101368.94;5325259;28;20043;-73
2023/07/08 02:19:21;;;;;;;3.58;2.72;;;;;;;18.20;67.91;101365.38;5325344;28;20027;-74
2023/07/08 02:21:53;;;;;;;11.40;3.90;;;;;;;18.10;67.92;101363.97;5324919;28;20051;-73
2023/07/08 02:24:24;;;;;;;6.00;3.63;;;;;;;18.14;67.57;101359.44;5325326;28;20027;-74
2023/07/08 02:26:57;;;;;;;5.87;3.33;;;;;;;18.11;67.59;101357.78;5325309;28;20060;-73
2023/07/08 02:29:29;;;;;;;;;;;;;;;18.35;64.76;101358.69;5325726;28;20051;-73
2023/07/08 02:32:00;;;;;;;4.45;3.15;;;;;;;18.03;68.16;101362.44;5325229;28;19954;-74
2023/07/08 02:34:32;;;;;;;8.10;3.53;;;;;;;17.99;68.47;101352.94;5324709;28;20105;-74
2023/07/08 02:37:03;;;;;;;3.87;3.13;;;;;;;17.95;68.33;101341.63;5323928;28;20118;-73
2023/07/08 02:39:35;;;;;;;6.60;3.50;;;;;;;17.93;69.05;101347.88;5324474;28;20024;-74
2023/07/08 02:42:06;;;;;;;5.07;3.07;;;;;;;17.89;69.72;101338.31;5325199;28;20051;-74
2023/07/08 02:44:37;;;;;;;7.30;4.13;;;;;;;17.72;69.60;101339.75;5325116;28;20081;-74
2023/07/08 02:47:09;;;;;;;6.53;3.27;;;;;;;17.77;69.69;101337.78;5325157;28;20030;-74
2023/07/08 02:49:40;;;;;;;4.97;3.40;;;;;;;17.60;70.28;101343.66;5325185;28;20032;-74
2023/07/08 02:52:12;;;;;;;6.27;3.37;;;;;;;17.55;70.21;101344.69;5324773;28;20038;-75
2023/07/08 02:54:43;;;;;;;7.30;3.80;;;;;;;17.50;70.33;101344.88;5324960;28;20031;-73
2023/07/08 02:57:15;;;;;;;11.37;4.27;;;;;;;17.55;71.09;101349.97;5325107;28;20425;-73
2023/07/08 02:59:46;;;;;;;6.20;3.90;;;;;;;17.49;71.61;101351.91;5327615;28;20028;-73
2023/07/08 03:02:17;;;;;;;6.03;4.37;;;;;;;17.46;71.83;101359.06;5328399;28;20150;-73
2023/07/08 03:04:49;;;;;;;6.90;4.20;;;;;;;17.35;71.48;101363.81;5328460;28;20545;-74
2023/07/08 03:07:21;;;;;;;8.35;3.92;;;;;;;17.39;72.76;101363.66;5328221;28;20417;-74
2023/07/08 03:09:52;;;;;;;9.93;3.83;;;;;;;17.39;72.22;101360.16;5328647;28;20031;-73
2023/07/08 03:12:24;;;;;;;7.37;4.03;;;;;;;17.38;72.51;101364.56;5328516;28;20148;-75
2023/07/08 03:14:55;;;;;;;5.90;3.30;;;;;;;17.28;72.88;101358.72;5328587;28;20454;-74
2023/07/08 03:17:27;;;;;;;8.13;3.97;;;;;;;17.21;72.37;101359.84;5327163;28;20126;-74
2023/07/08 03:19:58;;;;;;;5.10;3.70;;;;;;;17.10;72.23;101365.44;5328217;28;20071;-74
2023/07/08 03:22:29;;;;;;;9.33;3.97;;;;;;;17.15;72.95;101360.03;5328194;28;20031;-74
2023/07/08 03:25:01;;;;;;;5.53;4.00;;;;;;;17.21;73.52;101364.25;5326690;28;20039;-74
2023/07/08 03:27:33;;;;;;;6.18;4.13;;;;;;;17.09;73.90;101360.22;5327067;28;20038;-74
2023/07/08 03:30:05;;;;;;;7.07;3.90;;;;;;;17.06;72.86;101363.81;5326870;28;20028;-74
2023/07/08 03:32:36;;;;;;;6.07;4.18;;;;;;;16.99;73.07;101351.75;5327842;28;20043;-73
2023/07/08 03:35:08;;;;;;;5.97;4.20;;;;;;;17.06;73.16;101363.81;5328232;28;20101;-73
2023/07/08 03:37:40;;;;;;;11.05;4.50;;;;;;;17.03;72.85;101363.03;5326427;28;20121;-74
2023/07/08 03:40:13;;;;;;;5.15;3.60;;;;;;;17.12;74.58;101363.63;5328018;28;20463;-73
2023/07/08 03:42:44;;;;;;;;;;;;;;;17.38;71.07;101369.00;5328562;28;20081;-73
2023/07/08 03:45:16;;;;;;;7.28;3.88;;;;;;;17.12;73.72;101370.66;5326593;28;19911;-74
2023/07/08 03:47:47;;;;;;;8.10;4.33;;;;;;;17.14;74.71;101379.38;5328003;28;20038;-74
2023/07/08 03:50:22;;;;;;;7.63;4.23;;;;;;;17.08;74.44;101377.81;5326531;28;20363;-74
2023/07/08 03:52:55;;;;;;;11.10;3.95;;;;;;;16.86;74.17;101374.09;5327532;28;20031;-74
2023/07/08 03:55:27;;;;;;;;;;;;;;;17.27;71.31;101385.97;5328171;27;20035;-74
2023/07/08 03:57:58;;;;;;;6.50;3.95;;;;;;;17.06;74.32;101394.56;5327517;28;20006;-74
2023/07/08 04:00:30;;;;;;;5.73;3.57;;;;;;;16.89;74.44;101385.41;5327427;28;20020;-74
2023/07/08 04:03:01;;;;;;;5.22;4.13;;;;;;;17.02;75.96;101388.53;5327390;28;20113;-74
2023/07/08 04:05:33;;;;;;;11.90;4.30;;;;;;;16.97;74.93;101379.91;5326115;28;20035;-73
2023/07/08 04:08:04;;;;;;;9.27;4.40;;;;;;;16.91;75.13;101380.09;5327214;28;20032;-73
2023/07/08 04:10:36;;;;;;;8.13;4.13;;;;;;;16.99;75.55;101385.97;5326970;28;20027;-73
2023/07/08 04:13:07;;;;;;;7.30;4.27;;;;;;;17.02;76.28;101388.53;5326321;28;20066;-74
2023/07/08 04:15:39;;;;;;;6.07;4.40;;;;;;;17.03;76.77;101387.59;5327307;27;20028;-74
2023/07/08 04:18:10;;;;;;;5.30;4.03;;;;;;;17.11;77.43;101388.25;5326945;28;20478;-73
2023/07/08 04:20:42;;;;;;;5.60;4.10;;;;;;;16.96;75.99;101386.06;5327254;28;20359;-73
2023/07/08 04:23:13;;;;;;;6.90;3.57;;;;;;;16.90;75.23;101383.63;5326766;28;20471;-73
2023/07/08 04:25:45;;;;;;;8.60;4.40;;;;;;;16.99;76.70;101395.66;5327049;28;20081;-73
2023/07/08 04:28:16;;;;;;;5.43;4.10;;;;;;;17.02;77.19;101396.44;5326947;28;20118;-73
2023/07/08 04:30:48;;;;;;;7.88;3.80;;;;;;;17.01;76.69;101389.41;5325642;28;20035;-73
2023/07/08 04:33:20;;;;;;;5.57;4.35;;;;;;;16.98;77.22;101384.25;5326580;28;20200;-73
2023/07/08 04:35:51;;;;;;;7.87;4.67;;;;;;;17.07;78.73;101381.34;5326574;28;20072;-73
2023/07/08 04:38:24;;;;;;;6.97;4.33;;;;;;;16.91;76.51;101382.72;5326282;28;20110;-73
2023/07/08 04:40:57;;;;;;;6.18;4.18;;;;;;;16.96;77.11;101380.81;5326651;28;20039;-73
2023/07/08 04:43:28;;;;;;;8.18;4.35;;;;;;;17.00;78.00;101376.31;5326628;28;20035;-73
2023/07/08 04:46:00;;;;;;;6.20;3.97;;;;;;;17.09;79.00;101384.78;5325314;28;20030;-73
2023/07/08 04:48:32;;;;;;;5.55;4.05;;;;;;;17.02;77.92;101372.72;5326700;28;20088;-74
2023/07/08 04:51:04;;;;;;;8.30;4.50;;;;;;;17.08;78.35;101384.81;5326512;28;20040;-74
2023/07/08 04:53:35;;;;;;;8.33;3.93;;;;;;;17.19;79.78;101381.88;5326426;28;20329;-74
2023/07/08 04:56:07;;;;;;;5.90;4.20;;;;;;;17.19;78.48;101380.09;5325131;28;20028;-73
2023/07/08 04:58:39;;;;;;;7.65;4.53;;;;;;;17.28;80.86;101374.53;5326451;28;20023;-74
2023/07/08 05:01:10;;;;;;;7.67;5.23;;;;;;;17.36;79.27;101382.22;5325836;28;20416;-73
2023/07/08 05:03:42;;;;;;;5.80;4.25;;;;;;;17.42;80.46;101378.50;5326290;28;20470;-73
2023/07/08 05:06:13;;;;;;;6.37;4.60;;;;;;;17.46;80.03;101373.09;5326242;28;20092;-74
2023/07/08 05:08:44;;;;;;;9.07;4.67;;;;;;;17.46;77.78;101378.38;5324509;28;20538;-74
2023/07/08 05:11:16;;;;;;;7.97;4.30;;;;;;;17.60;76.25;101377.94;5326171;28;20084;-74
2023/07/08 05:13:47;;;;;;;10.13;4.30;;;;;;;17.61;77.35;101382.28;5326234;28;20428;-74
2023/07/08 05:16:19;;;;;;;4.90;3.83;;;;;;;17.75;77.92;101384.47;5325786;28;20039;-73
2023/07/08 05:18:50;;;;;;;7.00;4.63;;;;;;;17.73;76.89;101378.38;5326041;28;20035;-74
2023/07/08 05:21:21;;;;;;;6.07;4.10;;;;;;;17.77;77.61;101376.50;5325234;28;20028;-73
2023/07/08 05:23:53;;;;;;;8.37;4.53;;;;;;;17.80;78.87;101379.88;5325535;28;20055;-72
2023/07/08 05:26:24;;;;;;;7.03;4.20;;;;;;;17.83;79.94;101389.50;5325869;28;20355;-73
2023/07/08 05:28:56;;;;;;;8.70;4.50;;;;;;;17.88;78.12;101389.38;5326020;28;20036;-73
2023/07/08 05:31:28;;;;;;;9.80;4.47;;;;;;;17.96;78.28;101388.19;5325952;28;20078;-73
2023/07/08 05:34:00;;;;;;;;;;;;;;;18.13;76.48;101386.72;5324771;28;20531;-74
2023/07/08 05:36:31;;;;;;;9.70;4.43;;;;;;;17.96;77.89;101375.00;5325699;28;20006;-73
2023/07/08 05:39:03;;;;;;;6.55;4.50;;;;;;;18.04;78.43;101374.72;5324330;28;20482;-74
2023/07/08 05:41:34;;;;;;;9.07;4.77;;;;;;;18.11;80.09;101378.00;5324615;28;20100;-72
2023/07/08 05:44:06;;;;;;;13.17;4.73;;;;;;;18.29;79.32;101376.50;5325682;28;20425;-73
2023/07/08 05:46:37;;;;;;;5.73;4.57;;;;;;;18.40;78.93;101377.88;5325545;28;20262;-73
2023/07/08 05:49:09;;;;;;;8.37;4.57;;;;;;;18.46;79.06;101374.13;5325764;28;20028;-74
2023/07/08 05:51:40;;;;;;;10.45;4.97;;;;;;;18.53;77.26;101377.41;5325820;28;20035;-74
2023/07/08 05:54:12;;;;;;;9.37;5.10;;;;;;;18.68;76.98;101381.28;5324200;28;20085;-74
2023/07/08 05:56:47;;;;;;;7.03;5.10;;;;;;;18.73;75.75;101379.31;5325791;28;20063;-74
2023/07/08 05:59:18;;;;;;;11.43;5.45;;;;;;;18.85;74.44;101378.91;5325720;28;20058;-74
2023/07/08 06:01:50;;;;;;;9.23;5.20;;;;;;;18.91;73.97;101383.91;5325146;28;20032;-74
2023/07/08 06:04:22;;;;;;;7.37;5.07;;;;;;;19.04;75.15;101380.81;5325500;28;20257;-74
2023/07/08 06:06:53;;;;;;;8.05;5.43;;;;;;;19.21;73.25;101378.38;5325399;28;20031;-74
2023/07/08 06:09:24;;;;;;;10.73;5.27;;;;;;;19.24;72.34;101390.59;5325181;28;20031;-74
2023/07/08 06:11:56;;;;;;;11.40;5.70;;;;;;;19.42;73.14;101386.38;5325557;28;20106;-75
2023/07/08 06:14:28;;;;;;;9.47;5.77;;;;;;;19.49;73.70;101385.19;5325232;28;20039;-75
2023/07/08 06:16:59;;;;;;;8.07;5.78;;;;;;;19.58;70.78;101386.63;5325472;28;20063;-74
2023/07/08 06:19:30;;;;;;;11.13;6.40;;;;;;;19.69;71.93;101392.34;5325583;28;20024;-74
2023/07/08 06:22:02;;;;;;;8.67;5.33;;;;;;;19.81;70.53;101383.91;5325355;28;20177;-74
2023/07/08 06:24:34;;;;;;;8.30;5.53;;;;;;;19.89;69.17;101391.50;5325723;28;20023;-74
2023/07/08 06:27:06;;;;;;;9.05;6.10;;;;;;;20.04;66.51;101395.28;5324971;28;20751;-74
2023/07/08 06:29:37;;;;;;;9.77;5.57;;;;;;;20.06;68.84;101387.28;5324118;28;20386;-74
2023/07/08 06:32:09;;;;;;;9.27;5.17;;;;;;;20.21;68.41;101390.13;5325689;28;20027;-75
2023/07/08 06:34:40;;;;;;;9.75;6.50;;;;;;;20.34;66.03;101389.59;5329394;28;20038;-73
2023/07/08 06:37:12;;;;;;;8.47;5.53;;;;;;;20.40;64.56;101395.47;5327810;28;20110;-73
2023/07/08 06:39:43;;;;;;;8.37;5.63;;;;;;;20.47;65.87;101395.22;5328533;28;20023;-73
2023/07/08 06:42:15;;;;;;;7.90;5.00;;;;;;;20.56;66.22;101394.81;5328750;28;20032;-72
2023/07/08 06:44:50;;;;;;;11.63;6.15;;;;;;;20.66;63.24;101395.28;5328762;28;20024;-72
2023/07/08 06:47:22;;;;;;;11.18;5.97;;;;;;;20.66;65.18;101396.13;5328682;27;20510;-73
2023/07/08 06:49:53;;;;;;;10.73;5.50;;;;;;;20.81;61.57;101401.66;5328206;28;20028;-73
2023/07/08 06:52:33;;;;;;;11.70;5.80;;;;;;;20.86;64.13;101397.84;5328657;28;20667;-73
2023/07/08 06:55:08;;;;;;;11.20;5.47;;;;;;;20.97;64.13;101396.53;5328826;28;20034;-74
2023/07/08 06:57:40;;;;;;;12.43;5.85;;;;;;;21.03;62.50;101393.59;5328765;28;20028;-73
2023/07/08 07:00:12;;;;;;;8.07;5.43;;;;;;;21.12;62.70;101395.78;5327280;28;20112;-73
2023/07/08 07:02:43;;;;;;;9.02;5.70;;;;;;;21.21;61.60;101389.19;5327178;28;20020;-73
2023/07/08 07:05:14;;;;;;;10.33;5.67;;;;;;;21.35;62.35;101378.78;5328056;28;20165;-74
2023/07/08 07:07:46;;;;;;;12.17;5.97;;;;;;;21.41;62.51;101381.16;5328030;28;20085;-72
2023/07/08 07:10:18;;;;;;;10.80;5.90;;;;;;;21.53;63.69;101381.50;5324364;28;20028;-73
2023/07/08 07:12:49;;;;;;;8.57;5.13;;;;;;;21.66;60.76;101388.75;5321779;28;20023;-73
2023/07/08 07:15:21;;;;;;;7.93;5.40;;;;;;;21.66;62.47;101387.91;5323755;28;20034;-73
2023/07/08 07:17:53;;;;;;;8.30;5.23;;;;;;;21.88;60.30;101381.50;5314649;28;20106;-73
2023/07/08 07:20:26;;;;;;;10.40;5.70;;;;;;;21.97;60.26;101389.00;5305074;28;20027;-74
2023/07/08 07:22:57;;;;;;;8.60;5.35;;;;;;;22.04;58.65;101387.75;5305879;28;20375;-73
2023/07/08 07:25:29;;;;;;;11.70;6.17;;;;;;;22.16;57.33;101381.81;5306146;28;20032;-73
2023/07/08 07:28:00;;;;;;;11.27;5.33;;;;;;;22.18;57.83;101382.59;5307064;28;20115;-74
2023/07/08 07:30:32;;;;;;;9.85;5.63;;;;;;;22.29;58.53;101390.03;5305162;28;20032;-74
2023/07/08 07:33:03;;;;;;;12.67;5.90;;;;;;;22.53;57.28;101392.34;5307102;28;20054;-74
2023/07/08 07:35:35;;;;;;;9.00;5.83;;;;;;;22.56;57.30;101385.06;5304861;28;20028;-74
2023/07/08 07:38:06;;;;;;;12.13;6.40;;;;;;;22.76;58.11;101388.44;5306442;28;20039;-74
2023/07/08 07:40:39;;;;;;;10.50;5.63;;;;;;;22.80;58.17;101389.09;5306225;28;20039;-74
2023/07/08 07:43:11;;;;;;;10.57;6.43;;;;;;;22.90;55.63;101396.50;5306739;28;20024;-74
2023/07/08 07:45:42;;;;;;;16.63;5.90;;;;;;;23.22;53.43;101387.72;5303535;28;20463;-73
2023/07/08 07:48:13;;;;;;;11.10;6.10;;;;;;;23.21;53.37;101384.19;5306716;28;20086;-74
2023/07/08 07:50:51;;;;;;;12.60;6.23;;;;;;;23.22;55.32;101385.91;5306047;28;20115;-74
2023/07/08 07:53:22;;;;;;;9.32;5.82;;;;;;;23.28;54.00;101382.91;5306438;28;20029;-73
2023/07/08 07:56:02;;;;;;;8.20;5.63;;;;;;;23.46;53.89;101381.00;5305830;28;20498;-73
2023/07/08 07:58:34;;;;;;;10.85;6.55;;;;;;;23.53;53.50;101378.84;5306005;28;20357;-74
2023/07/08 08:01:06;;;;;;;9.25;5.65;;;;;;;23.60;53.40;101374.88;5305390;28;20371;-74
2023/07/08 08:03:37;;;;;;;7.72;5.50;;;;;;;23.62;55.76;101374.78;5305992;28;20107;-73
2023/07/08 08:06:09;;;;;;;9.27;5.87;;;;;;;23.75;53.02;101372.28;5303847;28;20439;-73
2023/07/08 08:08:40;;;;;;;10.93;6.27;;;;;;;23.94;53.14;101383.56;5304834;28;20399;-73
2023/07/08 08:11:12;;;;;;;15.67;7.43;;;;;;;24.00;51.23;101388.50;5305326;28;20492;-74
2023/07/08 08:13:43;;;;;;;8.75;6.35;;;;;;;24.13;50.30;101391.28;5304308;28;20373;-73
2023/07/08 08:16:15;;;;;;;12.30;6.03;;;;;;;24.17;50.48;101392.81;5305051;28;20488;-73
2023/07/08 08:18:46;;;;;;;11.60;6.40;;;;;;;24.32;53.73;101392.84;5305937;28;20109;-75
2023/07/08 08:21:18;;;;;;;8.77;6.53;;;;;;;24.44;52.84;101399.22;5305240;28;20051;-73
2023/07/08 08:23:49;;;;;;;10.40;5.70;;;;;;;24.44;51.81;101389.44;5305788;28;20640;-72
2023/07/08 08:26:21;;;;;;;9.37;6.13;;;;;;;24.60;52.23;101394.72;5305046;28;20115;-74
2023/07/08 08:28:52;;;;;;;8.83;5.90;;;;;;;24.73;52.03;101400.97;5305815;28;20055;-73
2023/07/08 08:31:23;;;;;;;8.20;6.33;;;;;;;24.79;52.24;101405.03;5304917;28;20035;-73
2023/07/08 08:33:55;;;;;;;10.37;7.00;;;;;;;25.04;51.20;101403.50;5304846;28;20101;-74
2023/07/08 08:36:26;;;;;;;9.45;6.57;;;;;;;25.04;51.44;101414.19;5304980;28;20035;-75
2023/07/08 08:38:58;;;;;;;13.30;6.67;;;;;;;25.21;49.43;101405.06;5305072;28;20039;-73
2023/07/08 08:41:31;;;;;;;12.50;6.07;;;;;;;25.31;48.52;101408.91;5304729;28;20332;-76
2023/07/08 08:44:05;;;;;;;10.80;5.70;;;;;;;25.38;51.70;101402.19;5305342;28;20371;-73
2023/07/08 08:46:49;;;;;;;10.40;6.60;;;;;;;25.65;51.34;101410.19;5304705;28;20063;-73
2023/07/08 08:49:20;;;;;;;8.88;6.68;;;;;;;25.70;51.16;101417.06;5305439;28;20035;-73
2023/07/08 08:51:52;;;;;;;8.80;6.30;;;;;;;25.75;47.16;101410.44;5304656;28;20088;-74
2023/07/08 08:54:24;;;;;;;;;;;;;;;25.97;49.51;101420.56;5305458;28;20486;-73
2023/07/08 08:57:06;;;;;;;13.40;7.17;;;;;;;25.90;47.92;101413.88;5303531;28;19944;-73
2023/07/08 08:59:45;;;;;;;10.23;6.78;;;;;;;26.08;47.44;101414.47;5303473;28;20035;-74
2023/07/08 09:02:49;;;;;;;12.45;6.75;;;;;;;26.46;46.84;101418.97;5303749;28;20122;-73
2023/07/08 09:05:20;;;;;;;16.40;7.78;;;;;;;26.54;44.61;101427.31;5269892;28;20050;-73
2023/07/08 09:08:16;;;;;;;9.63;6.68;;;;;;;26.57;45.74;101426.25;5309937;28;20471;-73
2023/07/08 09:10:57;;;;;;;9.20;7.10;;;;;;;26.48;47.37;101425.06;5304278;28;20089;-72
2023/07/08 09:13:34;;;;;;;11.10;6.82;;;;;;;26.63;45.89;101424.97;5304707;28;20455;-74
2023/07/08 09:16:24;;;;;;;11.07;6.22;;;;;;;26.82;44.19;101420.03;5304618;28;20420;-72
2023/07/08 09:19:04;;;;;;;9.52;7.00;;;;;;;27.01;43.06;101411.53;5304817;28;20182;-72
2023/07/08 09:21:42;;;;;;;10.88;6.88;;;;;;;26.85;42.74;101411.78;5304175;28;20089;-72
2023/07/08 09:24:39;;;;;;;11.15;8.15;;;;;;;27.11;44.43;101401.03;5304553;28;20060;-72
2023/07/08 09:27:11;;;;;;;11.00;7.78;;;;;;;27.33;44.17;101399.50;5304771;28;20078;-74
2023/07/08 09:29:42;;;;;;;9.68;6.68;;;;;;;27.55;43.90;101409.47;5304226;28;20036;-74
2023/07/08 09:32:22;;;;;;;12.93;7.20;;;;;;;27.54;42.82;101413.94;5304531;28;20088;-72
2023/07/08 09:35:02;;;;;;;14.23;7.35;;;;;;;27.54;40.54;101418.47;5303339;28;20020;-73
2023/07/08 09:37:38;;;;;;;11.05;6.78;;;;;;;27.79;42.70;101404.94;5304740;28;20508;-73
2023/07/08 09:40:33;;;;;;;8.60;6.22;;;;;;;28.17;43.40;101405.66;5302247;28;20036;-73
2023/07/08 09:43:38;;;;;;;13.20;6.70;;;;;;;28.29;39.91;101395.78;5304248;28;20079;-73
2023/07/08 09:46:12;;;;;;;11.50;7.22;;;;;;;28.23;42.37;101389.09;5303885;28;20036;-73
2023/07/08 09:48:44;;;;;;;9.75;7.20;;;;;;;28.41;43.27;101384.09;5303234;28;20118;-72
2023/07/08 09:51:15;;;;;;;;;;;;;;;28.65;40.98;101377.81;5304187;28;20190;-73
2023/07/08 09:53:46;;;;;;;10.60;7.45;;;;;;;28.49;40.79;101378.97;5304530;28;19920;-72
2023/07/08 09:56:18;;;;;;;;;;;;;;;28.82;40.02;101390.72;5303254;28;20105;-74
2023/07/08 09:58:50;;;;;;;15.47;7.63;;;;;;;28.78;41.30;101383.88;5304068;28;19916;-74
2023/07/08 10:01:26;;;;;;;11.20;7.47;;;;;;;29.09;40.24;101386.75;5303307;28;20319;-74
2023/07/08 10:03:59;;;;;;;11.13;7.55;;;;;;;29.04;41.81;101394.31;5304038;28;20078;-74
2023/07/08 10:06:35;;;;;;;9.27;7.28;;;;;;;29.46;36.18;101395.34;5303380;28;20039;-74
2023/07/08 10:09:18;;;;;;;10.80;6.78;;;;;;;29.50;37.45;101392.41;5307331;28;20081;-73
2023/07/08 10:12:04;;;;;;;11.27;7.35;;;;;;;30.00;34.88;101385.44;5307913;28;20036;-73
2023/07/08 10:14:47;;;;;;;10.10;7.15;;;;;;;30.53;39.12;101394.38;5306546;28;20031;-74
2023/07/08 10:17:21;;;;;;;12.02;7.20;;;;;;;30.72;35.29;101393.59;5307816;28;20028;-72
2023/07/08 10:19:52;;;;;;;9.32;7.00;;;;;;;31.01;36.96;101396.41;5307525;28;20031;-74
2023/07/08 10:22:41;;;;;;;10.88;6.95;;;;;;;31.67;36.93;101402.13;5308223;28;20036;-74
2023/07/08 10:25:42;;;;;;;9.18;7.25;;;;;;;32.12;32.14;101388.91;5307711;28;20112;-74
2023/07/08 10:28:52;;;;;;;8.18;7.22;;;;;;;32.18;32.28;101387.47;5308039;28;20030;-72
2023/07/08 10:31:33;;;;;;;13.05;7.72;;;;;;;32.23;32.79;101389.72;5307068;28;20051;-73
2023/07/08 10:34:19;;;;;;;12.27;7.70;;;;;;;32.73;32.61;101392.09;5308132;28;20040;-73
2023/07/08 10:37:15;;;;;;;12.10;8.18;;;;;;;33.04;31.86;101391.78;5307329;28;20032;-74
2023/07/08 10:39:53;;;;;;;8.60;6.97;;;;;;;33.29;30.96;101392.91;5310098;28;20454;-74
2023/07/08 10:43:29;;;;;;;10.07;7.22;;;;;;;33.89;30.62;101396.81;5309300;28;20028;-73
2023/07/08 10:46:10;;;;;;;8.38;7.25;;;;;;;34.13;30.03;101396.97;5320948;28;20573;-74
2023/07/08 10:48:59;;;;;;;11.63;8.07;;;;;;;34.58;29.74;101397.72;5315972;28;20082;-74
2023/07/08 10:51:51;;;;;;;8.95;7.63;;;;;;;35.13;29.99;101404.56;5315718;28;20107;-74
2023/07/08 10:54:44;;;;;;;8.65;7.13;;;;;;;35.51;31.55;101406.81;5313982;28;20383;-75
2023/07/08 10:57:37;;;;;;;11.20;8.35;;;;;;;35.74;29.72;101418.72;5312784;28;20022;-72
2023/07/08 11:00:27;;;;;;;12.68;7.70;;;;;;;35.71;26.88;101407.31;5325924;28;20037;-73
2023/07/08 11:02:58;;;;;;;12.60;7.47;;;;;;;35.54;28.15;101403.78;5322324;28;20394;-72
2023/07/08 11:05:50;;;;;;;13.80;8.13;;;;;;;36.30;29.50;101402.53;5319157;28;20031;-74
2023/07/08 11:08:21;;;;;;;;;;;;;;;37.39;27.42;101396.41;5319142;28;20036;-75
2023/07/08 11:10:56;;;;;;;;;;;;;;;37.65;28.09;101387.00;5317111;28;19918;-73
2023/07/08 11:13:30;;;;;;;10.85;7.40;;;;;;;36.61;27.96;101396.28;5316105;28;19947;-73
2023/07/08 11:16:11;;;;;;;12.32;8.05;;;;;;;36.57;24.61;101392.25;5319087;28;20451;-74
2023/07/08 11:18:49;;;;;;;;;;;;;;;37.70;24.71;101401.75;5324788;28;20027;-74
2023/07/08 11:21:31;;;;;;;12.32;8.07;;;;;;;36.74;25.57;101397.63;5314348;28;19938;-73
2023/07/08 11:24:28;;;;;;;14.40;8.50;;;;;;;36.92;25.63;101395.50;5316613;28;20039;-74
2023/07/08 11:27:06;;;;;;;9.40;7.47;;;;;;;36.69;25.42;101395.41;5317894;28;20030;-73
2023/07/08 11:29:48;;;;;;;9.57;8.07;;;;;;;36.71;24.53;101390.66;5316753;28;20042;-75
2023/07/08 11:32:21;;;;;;;9.35;7.63;;;;;;;36.72;26.36;101394.22;5318127;28;20429;-72
2023/07/08 11:34:55;;;;;;;9.43;7.82;;;;;;;36.92;28.14;101398.22;5318629;28;20119;-75
2023/07/08 11:37:28;;;;;;;8.70;6.93;;;;;;;37.11;24.40;101396.06;5316567;28;20040;-74
2023/07/08 11:40:18;;;;;;;9.85;7.70;;;;;;;37.68;26.92;101392.13;5305979;28;20064;-75
2023/07/08 11:43:02;;;;;;;11.43;8.13;;;;;;;37.71;23.61;101386.31;5306888;28;20107;-74
2023/07/08 11:45:38;;;;;;;10.45;7.95;;;;;;;37.70;24.78;101371.84;5308923;28;20024;-73
2023/07/08 11:48:19;;;;;;;11.95;7.95;;;;;;;38.17;25.92;101377.19;5315964;28;20026;-74
2023/07/08 11:50:51;;;;;;;10.67;8.33;;;;;;;38.57;23.98;101373.09;5315046;28;20020;-75
2023/07/08 11:53:29;;;;;;;8.88;7.97;;;;;;;39.07;25.87;101378.75;5316781;28;20035;-74
2023/07/08 11:56:04;;;;;;;15.65;8.05;;;;;;;39.18;23.09;101380.94;5313636;28;20047;-74
2023/07/08 11:58:47;;;;;;;9.90;8.48;;;;;;;39.79;24.73;101376.06;5305575;28;20062;-74